sensor_id;sensor_type;location;lat;lon;timestamp;temperature;humidity
53294;DHT22;39181;53.440;5.644;2022-08-20T00:00:58;18.10;99.90
53294;DHT22;39181;53.440;5.644;2022-08-20T00:03:32;18.10;99.90
53294;DHT22;39181;53.440;5.644;2022-08-20T00:06:18;18.10;99.90
53294;DHT22;39181;53.440;5.644;2022-08-20T00:08:45;18.00;99.90
53294;DHT22;39181;53.440;5.644;2022-08-20T00:11:13;18.00;99.90
53294;DHT22;39181;53.440;5.644;2022-08-20T00:13:45;18.00;99.90
53294;DHT22;39181;53.440;5.644;2022-08-20T00:16:13;18.10;99.90
53294;DHT22;39181;53.440;5.644;2022-08-20T00:18:39;18.10;99.90
53294;DHT22;39181;53.440;5.644;2022-08-20T00:21:08;18.10;99.90
53294;DHT22;39181;53.440;5.644;2022-08-20T00:23:36;18.20;99.90
53294;DHT22;39181;53.440;5.644;2022-08-20T00:26:03;18.20;99.90
53294;DHT22;39181;53.440;5.644;2022-08-20T00:28:28;18.10;99.90
53294;DHT22;39181;53.440;5.644;2022-08-20T00:30:54;18.10;99.90
53294;DHT22;39181;53.440;5.644;2022-08-20T00:33:21;18.10;99.90
53294;DHT22;39181;53.440;5.644;2022-08-20T00:35:50;18.10;99.90
53294;DHT22;39181;53.440;5.644;2022-08-20T00:38:16;18.20;99.90
53294;DHT22;39181;53.440;5.644;2022-08-20T00:40:48;18.10;99.90
53294;DHT22;39181;53.440;5.644;2022-08-20T00:43:31;18.10;99.90
53294;DHT22;39181;53.440;5.644;2022-08-20T00:45:58;18.10;99.90
53294;DHT22;39181;53.440;5.644;2022-08-20T00:48:28;18.00;99.90
53294;DHT22;39181;53.440;5.644;2022-08-20T00:51:14;18.00;99.90
53294;DHT22;39181;53.440;5.644;2022-08-20T00:53:42;17.90;99.90
53294;DHT22;39181;53.440;5.644;2022-08-20T00:56:10;17.80;99.90
53294;DHT22;39181;53.440;5.644;2022-08-20T00:58:37;17.80;99.90
53294;DHT22;39181;53.440;5.644;2022-08-20T01:01:04;17.80;99.90
53294;DHT22;39181;53.440;5.644;2022-08-20T01:03:31;17.80;99.90
53294;DHT22;39181;53.440;5.644;2022-08-20T01:05:57;17.80;99.90
53294;DHT22;39181;53.440;5.644;2022-08-20T01:08:23;17.80;99.90
53294;DHT22;39181;53.440;5.644;2022-08-20T01:10:51;17.80;99.90
53294;DHT22;39181;53.440;5.644;2022-08-20T01:13:24;17.70;99.90
53294;DHT22;39181;53.440;5.644;2022-08-20T01:15:53;17.70;99.90
53294;DHT22;39181;53.440;5.644;2022-08-20T01:18:24;17.70;99.90
53294;DHT22;39181;53.440;5.644;2022-08-20T01:20:56;17.70;99.90
53294;DHT22;39181;53.440;5.644;2022-08-20T01:23:41;17.60;99.90
53294;DHT22;39181;53.440;5.644;2022-08-20T01:26:24;17.60;99.90
53294;DHT22;39181;53.440;5.644;2022-08-20T01:29:15;17.60;99.90
53294;DHT22;39181;53.440;5.644;2022-08-20T01:31:43;17.40;99.90
53294;DHT22;39181;53.440;5.644;2022-08-20T01:34:13;17.40;99.90
53294;DHT22;39181;53.440;5.644;2022-08-20T01:39:10;17.40;99.90
53294;DHT22;39181;53.440;5.644;2022-08-20T01:41:59;17.30;99.90
53294;DHT22;39181;53.440;5.644;2022-08-20T01:44:28;17.70;99.90
53294;DHT22;39181;53.440;5.644;2022-08-20T01:46:55;17.30;99.90
53294;DHT22;39181;53.440;5.644;2022-08-20T01:49:25;17.30;99.90
53294;DHT22;39181;53.440;5.644;2022-08-20T01:51:53;17.30;99.90
53294;DHT22;39181;53.440;5.644;2022-08-20T01:54:20;17.30;99.90
53294;DHT22;39181;53.440;5.644;2022-08-20T01:56:59;17.20;99.90
53294;DHT22;39181;53.440;5.644;2022-08-20T01:59:27;17.20;99.90
53294;DHT22;39181;53.440;5.644;2022-08-20T02:01:53;17.10;99.90
53294;DHT22;39181;53.440;5.644;2022-08-20T02:04:19;17.10;99.90
53294;DHT22;39181;53.440;5.644;2022-08-20T02:06:50;17.10;99.90
53294;DHT22;39181;53.440;5.644;2022-08-20T02:09:17;17.00;99.90
53294;DHT22;39181;53.440;5.644;2022-08-20T02:11:43;17.00;99.90
53294;DHT22;39181;53.440;5.644;2022-08-20T02:14:12;17.10;99.90
53294;DHT22;39181;53.440;5.644;2022-08-20T02:16:41;16.90;99.90
53294;DHT22;39181;53.440;5.644;2022-08-20T02:19:11;16.80;99.90
53294;DHT22;39181;53.440;5.644;2022-08-20T02:21:42;16.70;99.90
53294;DHT22;39181;53.440;5.644;2022-08-20T02:24:08;16.80;99.90
53294;DHT22;39181;53.440;5.644;2022-08-20T02:26:34;16.80;99.90
53294;DHT22;39181;53.440;5.644;2022-08-20T02:29:04;16.70;99.90
53294;DHT22;39181;53.440;5.644;2022-08-20T02:31:31;16.70;99.90
53294;DHT22;39181;53.440;5.644;2022-08-20T02:33:56;16.60;99.90
53294;DHT22;39181;53.440;5.644;2022-08-20T02:36:22;16.50;99.90
53294;DHT22;39181;53.440;5.644;2022-08-20T02:38:48;16.50;99.90
53294;DHT22;39181;53.440;5.644;2022-08-20T02:41:14;16.50;99.90
53294;DHT22;39181;53.440;5.644;2022-08-20T02:43:39;16.40;99.90
53294;DHT22;39181;53.440;5.644;2022-08-20T02:46:06;16.40;99.90
53294;DHT22;39181;53.440;5.644;2022-08-20T02:48:32;16.40;99.90
53294;DHT22;39181;53.440;5.644;2022-08-20T02:51:03;16.30;99.90
53294;DHT22;39181;53.440;5.644;2022-08-20T02:53:31;16.30;99.90
53294;DHT22;39181;53.440;5.644;2022-08-20T02:55:58;16.20;99.90
53294;DHT22;39181;53.440;5.644;2022-08-20T02:58:24;16.10;99.90
53294;DHT22;39181;53.440;5.644;2022-08-20T03:00:50;16.10;99.90
53294;DHT22;39181;53.440;5.644;2022-08-20T03:03:16;16.10;99.90
53294;DHT22;39181;53.440;5.644;2022-08-20T03:05:48;16.10;99.90
53294;DHT22;39181;53.440;5.644;2022-08-20T03:08:14;16.00;99.90
53294;DHT22;39181;53.440;5.644;2022-08-20T03:10:43;16.00;99.90
53294;DHT22;39181;53.440;5.644;2022-08-20T03:13:09;16.00;99.90
53294;DHT22;39181;53.440;5.644;2022-08-20T03:15:38;16.10;99.90
53294;DHT22;39181;53.440;5.644;2022-08-20T03:18:04;16.10;99.90
53294;DHT22;39181;53.440;5.644;2022-08-20T03:20:29;16.10;99.90
53294;DHT22;39181;53.440;5.644;2022-08-20T03:22:56;16.00;99.90
53294;DHT22;39181;53.440;5.644;2022-08-20T03:25:22;16.00;99.90
53294;DHT22;39181;53.440;5.644;2022-08-20T03:27:48;16.00;99.90
53294;DHT22;39181;53.440;5.644;2022-08-20T03:30:15;16.00;99.90
53294;DHT22;39181;53.440;5.644;2022-08-20T03:32:41;16.00;99.90
53294;DHT22;39181;53.440;5.644;2022-08-20T03:35:09;16.00;99.90
53294;DHT22;39181;53.440;5.644;2022-08-20T03:37:37;16.00;99.90
53294;DHT22;39181;53.440;5.644;2022-08-20T03:40:06;16.00;99.90
53294;DHT22;39181;53.440;5.644;2022-08-20T03:42:32;15.90;99.90
53294;DHT22;39181;53.440;5.644;2022-08-20T03:44:57;15.90;99.90
53294;DHT22;39181;53.440;5.644;2022-08-20T03:47:23;16.00;99.90
53294;DHT22;39181;53.440;5.644;2022-08-20T03:49:49;16.00;99.90
53294;DHT22;39181;53.440;5.644;2022-08-20T03:52:15;15.90;99.90
53294;DHT22;39181;53.440;5.644;2022-08-20T03:54:43;16.00;99.90
53294;DHT22;39181;53.440;5.644;2022-08-20T03:57:14;15.90;99.90
53294;DHT22;39181;53.440;5.644;2022-08-20T03:59:41;15.90;99.90
53294;DHT22;39181;53.440;5.644;2022-08-20T04:02:07;15.80;99.90
53294;DHT22;39181;53.440;5.644;2022-08-20T04:04:33;15.70;99.90
53294;DHT22;39181;53.440;5.644;2022-08-20T04:06:59;15.70;99.90
53294;DHT22;39181;53.440;5.644;2022-08-20T04:09:24;15.70;99.90
53294;DHT22;39181;53.440;5.644;2022-08-20T04:11:50;15.60;99.90
53294;DHT22;39181;53.440;5.644;2022-08-20T04:14:15;15.60;99.90
53294;DHT22;39181;53.440;5.644;2022-08-20T04:16:41;15.50;99.90
53294;DHT22;39181;53.440;5.644;2022-08-20T04:19:07;15.50;99.90
53294;DHT22;39181;53.440;5.644;2022-08-20T04:21:34;15.50;99.90
53294;DHT22;39181;53.440;5.644;2022-08-20T04:24:01;15.50;99.90
53294;DHT22;39181;53.440;5.644;2022-08-20T04:26:27;15.50;99.90
53294;DHT22;39181;53.440;5.644;2022-08-20T04:28:53;15.50;99.90
53294;DHT22;39181;53.440;5.644;2022-08-20T04:31:20;15.50;99.90
53294;DHT22;39181;53.440;5.644;2022-08-20T04:33:45;15.50;99.90
53294;DHT22;39181;53.440;5.644;2022-08-20T04:36:11;15.40;99.90
53294;DHT22;39181;53.440;5.644;2022-08-20T04:38:39;15.40;99.90
53294;DHT22;39181;53.440;5.644;2022-08-20T04:41:04;15.30;99.90
53294;DHT22;39181;53.440;5.644;2022-08-20T04:43:33;15.30;99.90
53294;DHT22;39181;53.440;5.644;2022-08-20T04:46:03;15.30;99.90
53294;DHT22;39181;53.440;5.644;2022-08-20T04:48:31;15.30;99.90
53294;DHT22;39181;53.440;5.644;2022-08-20T04:50:57;15.20;99.90
53294;DHT22;39181;53.440;5.644;2022-08-20T04:53:25;15.20;99.90
53294;DHT22;39181;53.440;5.644;2022-08-20T04:55:53;15.20;99.90
53294;DHT22;39181;53.440;5.644;2022-08-20T04:58:24;15.20;99.90
53294;DHT22;39181;53.440;5.644;2022-08-20T05:00:54;15.10;99.90
53294;DHT22;39181;53.440;5.644;2022-08-20T05:03:21;15.10;99.90
53294;DHT22;39181;53.440;5.644;2022-08-20T05:05:47;15.10;99.90
53294;DHT22;39181;53.440;5.644;2022-08-20T05:08:14;15.20;99.90
53294;DHT22;39181;53.440;5.644;2022-08-20T05:10:40;15.30;99.90
53294;DHT22;39181;53.440;5.644;2022-08-20T05:13:06;15.30;99.90
53294;DHT22;39181;53.440;5.644;2022-08-20T05:15:33;15.30;99.90
53294;DHT22;39181;53.440;5.644;2022-08-20T05:18:00;15.40;99.90
53294;DHT22;39181;53.440;5.644;2022-08-20T05:20:28;15.40;99.90
53294;DHT22;39181;53.440;5.644;2022-08-20T05:22:56;15.40;99.90
53294;DHT22;39181;53.440;5.644;2022-08-20T05:25:23;15.50;99.90
53294;DHT22;39181;53.440;5.644;2022-08-20T05:27:48;15.60;99.90
53294;DHT22;39181;53.440;5.644;2022-08-20T05:30:14;15.60;99.90
53294;DHT22;39181;53.440;5.644;2022-08-20T05:32:40;15.60;99.90
53294;DHT22;39181;53.440;5.644;2022-08-20T05:35:08;15.70;99.90
53294;DHT22;39181;53.440;5.644;2022-08-20T05:37:38;15.70;99.90
53294;DHT22;39181;53.440;5.644;2022-08-20T05:40:10;15.70;99.90
53294;DHT22;39181;53.440;5.644;2022-08-20T05:42:36;15.80;99.90
53294;DHT22;39181;53.440;5.644;2022-08-20T05:45:03;15.80;99.90
53294;DHT22;39181;53.440;5.644;2022-08-20T05:47:28;15.90;99.90
53294;DHT22;39181;53.440;5.644;2022-08-20T05:49:54;16.00;99.90
53294;DHT22;39181;53.440;5.644;2022-08-20T05:52:20;16.10;99.90
53294;DHT22;39181;53.440;5.644;2022-08-20T05:54:45;16.20;99.90
53294;DHT22;39181;53.440;5.644;2022-08-20T05:57:11;16.20;99.90
53294;DHT22;39181;53.440;5.644;2022-08-20T05:59:38;16.30;99.90
53294;DHT22;39181;53.440;5.644;2022-08-20T06:02:04;16.40;99.90
53294;DHT22;39181;53.440;5.644;2022-08-20T06:04:49;16.50;99.90
53294;DHT22;39181;53.440;5.644;2022-08-20T06:07:15;16.60;99.90
53294;DHT22;39181;53.440;5.644;2022-08-20T06:09:41;16.70;99.90
53294;DHT22;39181;53.440;5.644;2022-08-20T06:12:06;16.80;99.90
53294;DHT22;39181;53.440;5.644;2022-08-20T06:14:34;17.00;99.90
53294;DHT22;39181;53.440;5.644;2022-08-20T06:17:08;17.10;99.90
53294;DHT22;39181;53.440;5.644;2022-08-20T06:19:35;17.30;99.90
53294;DHT22;39181;53.440;5.644;2022-08-20T06:22:01;17.40;99.90
53294;DHT22;39181;53.440;5.644;2022-08-20T06:24:27;17.50;99.90
53294;DHT22;39181;53.440;5.644;2022-08-20T06:26:57;17.60;99.90
53294;DHT22;39181;53.440;5.644;2022-08-20T06:29:24;17.70;99.90
53294;DHT22;39181;53.440;5.644;2022-08-20T06:31:50;17.80;99.90
53294;DHT22;39181;53.440;5.644;2022-08-20T06:34:16;18.00;99.90
53294;DHT22;39181;53.440;5.644;2022-08-20T06:36:43;18.00;99.90
53294;DHT22;39181;53.440;5.644;2022-08-20T06:39:11;18.00;99.90
53294;DHT22;39181;53.440;5.644;2022-08-20T06:41:37;18.10;99.90
53294;DHT22;39181;53.440;5.644;2022-08-20T06:44:04;18.20;99.90
53294;DHT22;39181;53.440;5.644;2022-08-20T06:46:29;18.20;99.90
53294;DHT22;39181;53.440;5.644;2022-08-20T06:48:56;18.30;99.90
53294;DHT22;39181;53.440;5.644;2022-08-20T06:51:22;18.40;99.90
53294;DHT22;39181;53.440;5.644;2022-08-20T06:53:47;18.50;99.90
53294;DHT22;39181;53.440;5.644;2022-08-20T06:56:13;18.60;99.90
53294;DHT22;39181;53.440;5.644;2022-08-20T06:58:39;18.70;99.90
53294;DHT22;39181;53.440;5.644;2022-08-20T07:01:06;18.70;99.90
53294;DHT22;39181;53.440;5.644;2022-08-20T07:03:33;18.80;99.90
53294;DHT22;39181;53.440;5.644;2022-08-20T07:05:58;18.90;99.90
53294;DHT22;39181;53.440;5.644;2022-08-20T07:08:24;19.00;99.90
53294;DHT22;39181;53.440;5.644;2022-08-20T07:10:50;19.10;99.90
53294;DHT22;39181;53.440;5.644;2022-08-20T07:13:15;19.20;99.90
53294;DHT22;39181;53.440;5.644;2022-08-20T07:15:43;19.30;99.90
53294;DHT22;39181;53.440;5.644;2022-08-20T07:18:10;19.40;99.90
53294;DHT22;39181;53.440;5.644;2022-08-20T07:20:36;19.50;99.90
53294;DHT22;39181;53.440;5.644;2022-08-20T07:23:04;19.60;99.90
53294;DHT22;39181;53.440;5.644;2022-08-20T07:25:30;19.70;99.90
53294;DHT22;39181;53.440;5.644;2022-08-20T07:28:06;19.80;99.90
53294;DHT22;39181;53.440;5.644;2022-08-20T07:30:33;19.90;99.90
53294;DHT22;39181;53.440;5.644;2022-08-20T07:33:18;20.00;99.90
53294;DHT22;39181;53.440;5.644;2022-08-20T07:35:44;20.10;99.90
53294;DHT22;39181;53.440;5.644;2022-08-20T07:38:15;20.30;99.90
53294;DHT22;39181;53.440;5.644;2022-08-20T07:40:44;20.40;99.90
53294;DHT22;39181;53.440;5.644;2022-08-20T07:43:13;20.60;99.90
53294;DHT22;39181;53.440;5.644;2022-08-20T07:45:40;20.70;99.90
53294;DHT22;39181;53.440;5.644;2022-08-20T07:48:07;20.80;99.90
53294;DHT22;39181;53.440;5.644;2022-08-20T07:50:34;20.90;99.90
53294;DHT22;39181;53.440;5.644;2022-08-20T07:52:59;21.10;99.90
53294;DHT22;39181;53.440;5.644;2022-08-20T07:55:26;21.20;99.90
53294;DHT22;39181;53.440;5.644;2022-08-20T07:57:51;21.30;99.90
53294;DHT22;39181;53.440;5.644;2022-08-20T08:00:20;21.40;99.90
53294;DHT22;39181;53.440;5.644;2022-08-20T08:02:46;21.60;99.90
53294;DHT22;39181;53.440;5.644;2022-08-20T08:05:12;21.70;99.90
53294;DHT22;39181;53.440;5.644;2022-08-20T08:07:38;21.80;99.90
53294;DHT22;39181;53.440;5.644;2022-08-20T08:10:07;21.90;99.90
53294;DHT22;39181;53.440;5.644;2022-08-20T08:12:36;22.10;99.90
53294;DHT22;39181;53.440;5.644;2022-08-20T08:15:04;22.20;99.90
53294;DHT22;39181;53.440;5.644;2022-08-20T08:17:31;22.20;99.90
53294;DHT22;39181;53.440;5.644;2022-08-20T08:19:57;22.30;99.90
53294;DHT22;39181;53.440;5.644;2022-08-20T08:22:24;22.30;99.90
53294;DHT22;39181;53.440;5.644;2022-08-20T08:24:49;22.40;99.90
53294;DHT22;39181;53.440;5.644;2022-08-20T08:27:15;22.40;99.90
53294;DHT22;39181;53.440;5.644;2022-08-20T08:29:43;22.50;99.90
53294;DHT22;39181;53.440;5.644;2022-08-20T08:32:09;22.50;99.90
53294;DHT22;39181;53.440;5.644;2022-08-20T08:34:36;22.60;99.90
53294;DHT22;39181;53.440;5.644;2022-08-20T08:37:03;22.70;99.90
53294;DHT22;39181;53.440;5.644;2022-08-20T08:39:30;22.70;99.90
53294;DHT22;39181;53.440;5.644;2022-08-20T08:41:58;22.90;99.90
53294;DHT22;39181;53.440;5.644;2022-08-20T08:44:28;22.90;99.90
53294;DHT22;39181;53.440;5.644;2022-08-20T08:47:01;22.80;99.90
53294;DHT22;39181;53.440;5.644;2022-08-20T08:49:34;23.00;99.90
53294;DHT22;39181;53.440;5.644;2022-08-20T08:52:04;23.00;99.90
53294;DHT22;39181;53.440;5.644;2022-08-20T08:54:32;23.30;99.90
53294;DHT22;39181;53.440;5.644;2022-08-20T08:56:58;23.50;99.90
53294;DHT22;39181;53.440;5.644;2022-08-20T08:59:27;23.60;99.90
53294;DHT22;39181;53.440;5.644;2022-08-20T09:01:56;23.90;99.90
53294;DHT22;39181;53.440;5.644;2022-08-20T09:04:34;23.90;99.90
53294;DHT22;39181;53.440;5.644;2022-08-20T09:07:02;24.00;99.90
53294;DHT22;39181;53.440;5.644;2022-08-20T09:09:36;24.30;99.90
53294;DHT22;39181;53.440;5.644;2022-08-20T09:12:08;24.50;99.90
53294;DHT22;39181;53.440;5.644;2022-08-20T09:14:35;24.60;99.90
53294;DHT22;39181;53.440;5.644;2022-08-20T09:17:01;24.70;99.90
53294;DHT22;39181;53.440;5.644;2022-08-20T09:19:27;24.90;99.90
53294;DHT22;39181;53.440;5.644;2022-08-20T09:21:52;25.10;99.90
53294;DHT22;39181;53.440;5.644;2022-08-20T09:24:18;25.20;99.90
53294;DHT22;39181;53.440;5.644;2022-08-20T09:26:44;25.40;99.90
53294;DHT22;39181;53.440;5.644;2022-08-20T09:29:09;25.40;99.90
53294;DHT22;39181;53.440;5.644;2022-08-20T09:31:35;25.50;99.90
53294;DHT22;39181;53.440;5.644;2022-08-20T09:34:01;25.60;99.90
53294;DHT22;39181;53.440;5.644;2022-08-20T09:36:26;25.50;99.90
53294;DHT22;39181;53.440;5.644;2022-08-20T09:38:52;25.10;99.90
53294;DHT22;39181;53.440;5.644;2022-08-20T09:41:18;24.90;99.90
53294;DHT22;39181;53.440;5.644;2022-08-20T09:43:44;24.60;99.90
53294;DHT22;39181;53.440;5.644;2022-08-20T09:46:10;24.50;99.90
53294;DHT22;39181;53.440;5.644;2022-08-20T09:48:35;24.70;99.90
53294;DHT22;39181;53.440;5.644;2022-08-20T09:51:01;25.00;99.90
53294;DHT22;39181;53.440;5.644;2022-08-20T09:53:27;25.20;99.90
53294;DHT22;39181;53.440;5.644;2022-08-20T09:55:54;25.10;99.90
53294;DHT22;39181;53.440;5.644;2022-08-20T10:01:13;25.10;99.90
53294;DHT22;39181;53.440;5.644;2022-08-20T10:03:40;24.90;99.90
53294;DHT22;39181;53.440;5.644;2022-08-20T10:06:06;24.60;99.90
53294;DHT22;39181;53.440;5.644;2022-08-20T10:08:32;24.50;99.90
53294;DHT22;39181;53.440;5.644;2022-08-20T10:10:57;24.80;99.90
53294;DHT22;39181;53.440;5.644;2022-08-20T10:13:23;24.80;99.90
53294;DHT22;39181;53.440;5.644;2022-08-20T10:15:48;24.80;99.90
53294;DHT22;39181;53.440;5.644;2022-08-20T10:18:14;24.70;99.90
53294;DHT22;39181;53.440;5.644;2022-08-20T10:20:40;24.50;99.90
53294;DHT22;39181;53.440;5.644;2022-08-20T10:23:06;24.20;99.90
53294;DHT22;39181;53.440;5.644;2022-08-20T10:25:32;24.30;99.90
53294;DHT22;39181;53.440;5.644;2022-08-20T10:27:57;24.50;99.90
53294;DHT22;39181;53.440;5.644;2022-08-20T10:30:24;24.70;99.90
53294;DHT22;39181;53.440;5.644;2022-08-20T10:32:49;24.70;99.90
53294;DHT22;39181;53.440;5.644;2022-08-20T10:35:15;24.90;99.90
53294;DHT22;39181;53.440;5.644;2022-08-20T10:37:41;25.40;99.90
53294;DHT22;39181;53.440;5.644;2022-08-20T10:40:07;25.40;99.90
53294;DHT22;39181;53.440;5.644;2022-08-20T10:42:33;25.40;99.90
53294;DHT22;39181;53.440;5.644;2022-08-20T10:44:58;25.40;99.90
53294;DHT22;39181;53.440;5.644;2022-08-20T10:47:30;25.50;99.90
53294;DHT22;39181;53.440;5.644;2022-08-20T10:49:58;25.80;99.90
53294;DHT22;39181;53.440;5.644;2022-08-20T10:52:25;26.30;99.90
53294;DHT22;39181;53.440;5.644;2022-08-20T10:54:51;26.50;99.90
53294;DHT22;39181;53.440;5.644;2022-08-20T10:57:20;26.90;99.90
53294;DHT22;39181;53.440;5.644;2022-08-20T10:59:47;27.00;99.90
53294;DHT22;39181;53.440;5.644;2022-08-20T11:02:13;27.30;99.90
53294;DHT22;39181;53.440;5.644;2022-08-20T11:04:39;27.20;99.90
53294;DHT22;39181;53.440;5.644;2022-08-20T11:09:36;26.50;99.90
53294;DHT22;39181;53.440;5.644;2022-08-20T11:12:03;26.20;99.90
53294;DHT22;39181;53.440;5.644;2022-08-20T11:14:28;26.10;99.90
53294;DHT22;39181;53.440;5.644;2022-08-20T11:16:54;26.10;99.90
53294;DHT22;39181;53.440;5.644;2022-08-20T11:19:20;26.20;99.90
53294;DHT22;39181;53.440;5.644;2022-08-20T11:21:45;26.20;99.90
53294;DHT22;39181;53.440;5.644;2022-08-20T11:24:11;26.30;99.90
53294;DHT22;39181;53.440;5.644;2022-08-20T11:26:37;26.30;99.90
53294;DHT22;39181;53.440;5.644;2022-08-20T11:29:02;26.10;99.90
53294;DHT22;39181;53.440;5.644;2022-08-20T11:31:28;26.10;99.90
53294;DHT22;39181;53.440;5.644;2022-08-20T11:33:54;26.10;99.90
53294;DHT22;39181;53.440;5.644;2022-08-20T11:36:20;26.50;99.90
53294;DHT22;39181;53.440;5.644;2022-08-20T11:38:45;26.50;99.90
53294;DHT22;39181;53.440;5.644;2022-08-20T11:41:11;26.70;99.90
53294;DHT22;39181;53.440;5.644;2022-08-20T11:43:36;26.70;99.90
53294;DHT22;39181;53.440;5.644;2022-08-20T11:46:02;26.90;99.90
53294;DHT22;39181;53.440;5.644;2022-08-20T11:48:27;27.00;99.90
53294;DHT22;39181;53.440;5.644;2022-08-20T11:50:53;27.20;99.90
53294;DHT22;39181;53.440;5.644;2022-08-20T11:53:19;27.10;99.90
53294;DHT22;39181;53.440;5.644;2022-08-20T11:55:45;27.10;99.90
53294;DHT22;39181;53.440;5.644;2022-08-20T11:58:11;27.00;99.90
53294;DHT22;39181;53.440;5.644;2022-08-20T12:00:37;26.90;99.90
53294;DHT22;39181;53.440;5.644;2022-08-20T12:03:03;26.90;99.90
53294;DHT22;39181;53.440;5.644;2022-08-20T12:05:29;26.80;99.90
53294;DHT22;39181;53.440;5.644;2022-08-20T12:07:55;26.70;99.90
53294;DHT22;39181;53.440;5.644;2022-08-20T12:10:21;26.70;99.90
53294;DHT22;39181;53.440;5.644;2022-08-20T12:12:48;26.70;99.90
53294;DHT22;39181;53.440;5.644;2022-08-20T12:15:14;26.70;99.90
53294;DHT22;39181;53.440;5.644;2022-08-20T12:17:40;26.90;99.90
53294;DHT22;39181;53.440;5.644;2022-08-20T12:20:10;26.80;99.90
53294;DHT22;39181;53.440;5.644;2022-08-20T12:22:37;26.80;99.90
53294;DHT22;39181;53.440;5.644;2022-08-20T12:25:04;26.50;99.90
53294;DHT22;39181;53.440;5.644;2022-08-20T12:27:32;26.50;99.90
53294;DHT22;39181;53.440;5.644;2022-08-20T12:30:00;26.40;99.90
53294;DHT22;39181;53.440;5.644;2022-08-20T12:32:28;26.30;99.90
53294;DHT22;39181;53.440;5.644;2022-08-20T12:34:55;26.20;99.90
53294;DHT22;39181;53.440;5.644;2022-08-20T12:37:23;26.10;99.90
53294;DHT22;39181;53.440;5.644;2022-08-20T12:39:52;26.10;99.90
53294;DHT22;39181;53.440;5.644;2022-08-20T12:42:19;25.90;99.90
53294;DHT22;39181;53.440;5.644;2022-08-20T12:44:45;25.90;99.90
53294;DHT22;39181;53.440;5.644;2022-08-20T12:47:16;25.90;99.90
53294;DHT22;39181;53.440;5.644;2022-08-20T12:49:45;25.90;99.90
53294;DHT22;39181;53.440;5.644;2022-08-20T12:52:13;25.70;99.90
53294;DHT22;39181;53.440;5.644;2022-08-20T12:54:39;25.60;99.90
53294;DHT22;39181;53.440;5.644;2022-08-20T12:57:05;25.30;99.90
53294;DHT22;39181;53.440;5.644;2022-08-20T12:59:31;25.00;99.90
53294;DHT22;39181;53.440;5.644;2022-08-20T13:01:57;24.90;99.90
53294;DHT22;39181;53.440;5.644;2022-08-20T13:04:23;24.90;99.90
53294;DHT22;39181;53.440;5.644;2022-08-20T13:06:49;24.80;99.90
53294;DHT22;39181;53.440;5.644;2022-08-20T13:09:15;24.80;99.90
53294;DHT22;39181;53.440;5.644;2022-08-20T13:11:41;24.80;99.90
53294;DHT22;39181;53.440;5.644;2022-08-20T13:14:07;24.80;99.90
53294;DHT22;39181;53.440;5.644;2022-08-20T13:16:32;24.80;99.90
53294;DHT22;39181;53.440;5.644;2022-08-20T13:18:58;24.80;99.90
53294;DHT22;39181;53.440;5.644;2022-08-20T13:21:24;24.80;99.90
53294;DHT22;39181;53.440;5.644;2022-08-20T13:23:50;24.90;99.90
53294;DHT22;39181;53.440;5.644;2022-08-20T13:26:16;24.80;99.90
53294;DHT22;39181;53.440;5.644;2022-08-20T13:28:42;24.90;99.90
53294;DHT22;39181;53.440;5.644;2022-08-20T13:31:07;25.00;99.90
53294;DHT22;39181;53.440;5.644;2022-08-20T13:33:33;24.90;99.90
53294;DHT22;39181;53.440;5.644;2022-08-20T13:35:58;24.90;99.90
53294;DHT22;39181;53.440;5.644;2022-08-20T13:38:24;24.70;99.90
53294;DHT22;39181;53.440;5.644;2022-08-20T13:40:50;24.60;99.90
53294;DHT22;39181;53.440;5.644;2022-08-20T13:43:16;24.30;99.90
53294;DHT22;39181;53.440;5.644;2022-08-20T13:45:41;24.20;99.90
53294;DHT22;39181;53.440;5.644;2022-08-20T13:48:07;24.20;99.90
53294;DHT22;39181;53.440;5.644;2022-08-20T13:50:34;24.10;99.90
53294;DHT22;39181;53.440;5.644;2022-08-20T13:53:00;24.30;99.90
53294;DHT22;39181;53.440;5.644;2022-08-20T13:55:27;24.30;99.90
53294;DHT22;39181;53.440;5.644;2022-08-20T13:57:54;24.40;99.90
53294;DHT22;39181;53.440;5.644;2022-08-20T14:00:21;24.50;99.90
53294;DHT22;39181;53.440;5.644;2022-08-20T14:02:47;24.50;99.90
53294;DHT22;39181;53.440;5.644;2022-08-20T14:05:13;24.50;99.90
53294;DHT22;39181;53.440;5.644;2022-08-20T14:07:40;24.50;99.90
53294;DHT22;39181;53.440;5.644;2022-08-20T14:10:19;24.50;99.90
53294;DHT22;39181;53.440;5.644;2022-08-20T14:12:46;24.50;99.90
53294;DHT22;39181;53.440;5.644;2022-08-20T14:15:11;24.30;99.90
53294;DHT22;39181;53.440;5.644;2022-08-20T14:17:40;24.20;99.90
53294;DHT22;39181;53.440;5.644;2022-08-20T14:20:12;24.10;99.90
53294;DHT22;39181;53.440;5.644;2022-08-20T14:22:38;24.00;99.90
53294;DHT22;39181;53.440;5.644;2022-08-20T14:25:05;23.90;99.90
53294;DHT22;39181;53.440;5.644;2022-08-20T14:27:31;23.80;99.90
53294;DHT22;39181;53.440;5.644;2022-08-20T14:29:58;23.70;99.90
53294;DHT22;39181;53.440;5.644;2022-08-20T14:32:25;23.60;99.90
53294;DHT22;39181;53.440;5.644;2022-08-20T14:34:52;23.60;99.90
53294;DHT22;39181;53.440;5.644;2022-08-20T14:37:24;23.40;99.90
53294;DHT22;39181;53.440;5.644;2022-08-20T14:39:52;23.30;99.90
53294;DHT22;39181;53.440;5.644;2022-08-20T14:42:19;23.30;99.90
53294;DHT22;39181;53.440;5.644;2022-08-20T14:44:47;23.30;99.90
53294;DHT22;39181;53.440;5.644;2022-08-20T14:47:14;23.30;99.90
53294;DHT22;39181;53.440;5.644;2022-08-20T14:49:41;23.20;99.90
53294;DHT22;39181;53.440;5.644;2022-08-20T14:52:09;23.20;99.90
53294;DHT22;39181;53.440;5.644;2022-08-20T14:54:35;23.20;99.90
53294;DHT22;39181;53.440;5.644;2022-08-20T14:57:02;23.20;99.90
53294;DHT22;39181;53.440;5.644;2022-08-20T14:59:28;23.20;99.90
53294;DHT22;39181;53.440;5.644;2022-08-20T15:01:54;23.20;99.90
53294;DHT22;39181;53.440;5.644;2022-08-20T15:04:20;23.20;99.90
53294;DHT22;39181;53.440;5.644;2022-08-20T15:06:46;23.20;99.90
53294;DHT22;39181;53.440;5.644;2022-08-20T15:09:12;23.10;99.90
53294;DHT22;39181;53.440;5.644;2022-08-20T15:11:37;23.00;99.90
53294;DHT22;39181;53.440;5.644;2022-08-20T15:14:06;22.90;99.90
53294;DHT22;39181;53.440;5.644;2022-08-20T15:16:31;22.90;99.90
53294;DHT22;39181;53.440;5.644;2022-08-20T15:18:58;23.10;99.90
53294;DHT22;39181;53.440;5.644;2022-08-20T15:21:24;23.20;99.90
53294;DHT22;39181;53.440;5.644;2022-08-20T15:23:49;23.10;99.90
53294;DHT22;39181;53.440;5.644;2022-08-20T15:26:15;23.30;99.90
53294;DHT22;39181;53.440;5.644;2022-08-20T15:28:40;23.40;99.90
53294;DHT22;39181;53.440;5.644;2022-08-20T15:31:10;23.40;99.90
53294;DHT22;39181;53.440;5.644;2022-08-20T15:33:37;23.50;99.90
53294;DHT22;39181;53.440;5.644;2022-08-20T15:36:05;23.50;99.90
53294;DHT22;39181;53.440;5.644;2022-08-20T15:38:31;23.40;99.90